Time;durP1;ratioP1;P1;durP2;ratioP2;P2;SDS_P1;SDS_P2;PMS_P1;PMS_P2;Temp;Humidity;BMP_temperature;BMP_pressure;BME280_temperature;BME280_humidity;BME280_pressure;Samples;Min_cycle;Max_cycle;Signal;HPM_P1;HPM_P2
2021/05/25 05:03:26;;;;;;;3.85;2.70;;;;;;;13.43;82.29;99589.16;5191484;27;20332;-64
2021/05/25 05:05:51;;;;;;;4.90;2.60;;;;;;;13.51;81.99;99585.47;5193843;27;20091;-65
2021/05/25 05:08:17;;;;;;;4.47;2.20;;;;;;;13.60;81.45;99591.44;5194555;27;20031;-64
2021/05/25 05:10:42;;;;;;;4.88;2.33;;;;;;;13.77;82.19;99590.00;5172818;27;35429;-64
2021/05/25 05:13:10;;;;;;;3.35;2.10;;;;;;;13.86;81.16;99596.81;5111369;27;20025;-64
2021/05/25 05:15:36;;;;;;;6.50;2.50;;;;;;;13.98;80.93;99612.25;5109723;27;20044;-64
2021/05/25 05:18:01;;;;;;;3.65;2.15;;;;;;;14.05;80.49;99615.72;5109600;27;20055;-64
2021/05/25 05:20:27;;;;;;;5.03;2.03;;;;;;;14.09;79.85;99625.00;5108087;27;36465;-63
2021/05/25 05:22:53;;;;;;;3.40;1.60;;;;;;;14.14;79.71;99619.84;5109314;27;20028;-65
2021/05/25 05:25:18;;;;;;;4.78;1.75;;;;;;;14.11;78.79;99625.63;5109061;27;31770;-64
2021/05/25 05:27:43;;;;;;;7.30;2.28;;;;;;;14.16;79.06;99633.88;5108936;27;32904;-63
2021/05/25 05:30:10;;;;;;;3.80;1.95;;;;;;;14.25;78.97;99631.78;5107882;27;36279;-64
2021/05/25 05:32:36;;;;;;;2.83;1.67;;;;;;;14.34;78.86;99629.75;5111457;27;20190;-65
2021/05/25 05:35:01;;;;;;;7.55;2.20;;;;;;;14.42;78.71;99632.19;5111311;27;20024;-64
2021/05/25 05:37:27;;;;;;;5.78;1.83;;;;;;;14.56;78.60;99628.44;5111259;28;20381;-63
2021/05/25 05:39:52;;;;;;;5.35;1.88;;;;;;;14.74;78.79;99626.16;5111553;27;20094;-64
2021/05/25 05:42:18;;;;;;;3.35;1.45;;;;;;;14.86;77.55;99632.50;5110954;27;20036;-65
2021/05/25 05:44:44;;;;;;;5.40;1.70;;;;;;;14.91;77.40;99638.03;5111124;27;20021;-66
2021/05/25 05:47:09;;;;;;;2.75;1.58;;;;;;;15.00;77.48;99627.91;5110929;27;20035;-64
2021/05/25 05:49:36;;;;;;;3.33;1.40;;;;;;;15.14;77.30;99623.31;5111017;27;20035;-65
2021/05/25 05:52:01;;;;;;;5.57;1.75;;;;;;;15.21;76.55;99622.25;5111199;27;20055;-65
2021/05/25 05:54:27;;;;;;;2.60;1.42;;;;;;;15.25;75.30;99619.13;5108666;27;40921;-68
2021/05/25 05:56:52;;;;;;;3.40;1.73;;;;;;;15.33;75.92;99626.91;5108278;28;35649;-68
2021/05/25 05:59:18;;;;;;;5.60;1.50;;;;;;;15.51;75.70;99623.50;5110535;27;28191;-67
2021/05/25 06:01:43;;;;;;;6.68;1.70;;;;;;;15.71;75.14;99618.00;5110428;27;20040;-70
2021/05/25 06:04:08;;;;;;;5.72;2.13;;;;;;;15.99;75.78;99609.56;5111010;27;20082;-68
2021/05/25 06:06:34;;;;;;;4.70;1.70;;;;;;;16.30;75.56;99615.88;5111068;27;20491;-65
2021/05/25 06:08:59;;;;;;;3.88;1.50;;;;;;;16.57;75.00;99621.78;5110735;28;20070;-67
2021/05/25 06:11:25;;;;;;;5.10;1.50;;;;;;;16.81;74.81;99635.38;5109179;28;20031;-67
2021/05/25 06:13:50;;;;;;;2.08;1.20;;;;;;;17.04;73.91;99628.53;5101639;27;34700;-67
2021/05/25 06:16:15;;;;;;;5.32;1.30;;;;;;;17.05;72.49;99639.06;5097420;28;20055;-65
2021/05/25 06:18:41;;;;;;;1.60;1.13;;;;;;;17.02;70.65;99638.72;5096970;28;20029;-66
2021/05/25 06:21:06;;;;;;;6.70;1.60;;;;;;;16.95;71.31;99654.94;5095911;28;38959;-66
2021/05/25 06:23:32;;;;;;;2.90;1.25;;;;;;;16.73;69.32;99654.50;5096801;28;20029;-67
2021/05/25 06:26:01;;;;;;;2.67;1.33;;;;;;;16.42;67.99;99656.28;5096024;28;20040;-68
2021/05/25 06:28:27;;;;;;;4.53;1.45;;;;;;;16.06;67.29;99658.66;5095028;28;20029;-67
2021/05/25 06:30:53;;;;;;;5.55;2.00;;;;;;;15.97;68.93;99667.22;5097186;28;20049;-67
2021/05/25 06:33:18;;;;;;;3.47;1.52;;;;;;;15.97;68.57;99669.91;5096825;28;20462;-66
2021/05/25 06:35:43;;;;;;;1.85;1.40;;;;;;;15.94;68.50;99681.91;5096777;28;20039;-66
2021/05/25 06:38:09;;;;;;;3.25;1.63;;;;;;;16.00;68.81;99688.28;5096973;28;20029;-66
2021/05/25 06:40:34;;;;;;;3.03;1.42;;;;;;;16.16;69.33;99682.34;5094952;28;24576;-65
2021/05/25 06:42:59;;;;;;;4.15;1.23;;;;;;;16.36;69.09;99686.72;5096123;28;36741;-65
2021/05/25 06:45:25;;;;;;;2.65;1.30;;;;;;;16.54;68.58;99686.78;5096504;28;20033;-68
2021/05/25 06:47:51;;;;;;;4.97;1.50;;;;;;;16.66;67.24;99686.03;5096848;28;20036;-67
2021/05/25 06:50:16;;;;;;;2.95;1.42;;;;;;;16.62;66.12;99682.16;5095723;28;32684;-66
2021/05/25 06:52:42;;;;;;;3.85;1.52;;;;;;;16.50;65.49;99669.44;5096592;28;20032;-67
2021/05/25 06:55:08;;;;;;;2.38;1.35;;;;;;;16.36;65.30;99689.41;5096123;28;20029;-66
2021/05/25 06:57:33;;;;;;;3.88;1.73;;;;;;;16.27;65.64;99682.69;5096612;28;20157;-68
2021/05/25 06:59:59;;;;;;;2.70;1.70;;;;;;;16.13;65.04;99681.97;5095386;28;20503;-67
2021/05/25 07:02:24;;;;;;;2.13;1.20;;;;;;;15.96;64.84;99695.94;5096343;28;20508;-68
2021/05/25 07:04:50;;;;;;;6.15;1.60;;;;;;;15.79;65.16;99700.16;5095897;28;20028;-70
2021/05/25 07:07:16;;;;;;;1.88;1.15;;;;;;;15.65;64.19;99705.63;5096401;28;20034;-69
2021/05/25 07:09:41;;;;;;;3.30;1.20;;;;;;;15.43;64.37;99713.16;5096740;28;20465;-67
2021/05/25 07:12:07;;;;;;;3.20;1.27;;;;;;;15.25;63.94;99713.03;5096387;28;20040;-69
2021/05/25 07:14:32;;;;;;;6.05;1.23;;;;;;;15.03;63.31;99724.84;5112304;28;20037;-67
2021/05/25 07:16:58;;;;;;;1.67;1.02;;;;;;;14.76;63.14;99716.06;5095700;28;36909;-69
2021/05/25 07:19:23;;;;;;;3.67;1.50;;;;;;;14.64;63.74;99720.41;5094555;28;39326;-69
2021/05/25 07:21:48;;;;;;;1.58;1.17;;;;;;;14.54;64.24;99734.19;5095269;28;31888;-66
2021/05/25 07:24:14;;;;;;;1.38;0.88;;;;;;;14.41;64.02;99732.38;5095347;28;31988;-66
2021/05/25 07:26:40;;;;;;;2.00;1.23;;;;;;;14.31;64.30;99754.22;5094615;28;20028;-63
2021/05/25 07:29:06;;;;;;;1.77;1.17;;;;;;;14.19;64.30;99751.31;5095914;28;20053;-65
2021/05/25 07:31:31;;;;;;;2.50;1.50;;;;;;;14.08;64.54;99765.31;5095822;28;20406;-65
2021/05/25 07:33:57;;;;;;;2.70;1.20;;;;;;;13.94;64.18;99759.13;5094177;28;33236;-66
2021/05/25 07:36:22;;;;;;;1.40;0.95;;;;;;;13.78;64.67;99752.28;5111443;28;20051;-67
2021/05/25 07:38:47;;;;;;;2.00;1.17;;;;;;;13.66;64.88;99767.28;5095330;28;33378;-66
2021/05/25 07:41:13;;;;;;;4.78;0.98;;;;;;;13.61;65.22;99770.53;5095420;28;20032;-65
2021/05/25 07:43:38;;;;;;;1.77;1.45;;;;;;;13.55;65.60;99779.38;5095421;28;20025;-67
2021/05/25 07:46:04;;;;;;;4.40;1.10;;;;;;;13.49;65.45;99777.47;5094762;28;32352;-65
2021/05/25 07:48:30;;;;;;;1.23;1.05;;;;;;;13.41;65.24;99788.34;5095268;28;20024;-64
2021/05/25 07:50:56;;;;;;;3.28;1.33;;;;;;;13.34;65.60;99788.28;5094004;28;20021;-70
2021/05/25 07:53:21;;;;;;;1.50;1.00;;;;;;;13.30;65.44;99787.03;5094829;28;26836;-72
2021/05/25 07:55:46;;;;;;;4.38;1.17;;;;;;;13.25;65.58;99798.34;5095747;28;20415;-67
2021/05/25 07:58:12;;;;;;;3.45;0.88;;;;;;;13.20;65.47;99811.47;5095529;28;20025;-71
2021/05/25 08:00:37;;;;;;;2.08;1.02;;;;;;;13.13;65.69;99811.44;5095515;28;20048;-70
2021/05/25 08:03:03;;;;;;;1.02;0.93;;;;;;;13.12;66.29;99808.97;5093824;28;20036;-72
2021/05/25 08:05:29;;;;;;;3.22;1.58;;;;;;;13.13;65.91;99806.09;5095643;28;20413;-74
2021/05/25 08:07:55;;;;;;;2.13;1.10;;;;;;;13.12;66.12;99812.47;5094124;28;20021;-67
2021/05/25 08:10:20;;;;;;;2.38;0.75;;;;;;;13.10;66.26;99809.16;5094694;28;20721;-68
2021/05/25 08:12:46;;;;;;;2.10;1.00;;;;;;;13.09;65.88;99825.41;5094583;28;20050;-76
2021/05/25 08:15:13;;;;;;;2.05;1.10;;;;;;;13.04;65.93;99815.31;5096340;28;20127;-75
2021/05/25 08:17:52;;;;;;;3.28;0.98;;;;;;;13.01;66.16;99823.69;5093913;28;20772;-79
2021/05/25 08:20:18;;;;;;;2.28;1.38;;;;;;;13.03;66.55;99827.81;5094251;28;20111;-70
2021/05/25 08:22:48;;;;;;;2.03;1.00;;;;;;;13.04;66.49;99844.72;5095294;28;20029;-67
2021/05/25 08:25:14;;;;;;;1.73;1.30;;;;;;;13.09;66.49;99852.13;5093585;28;20115;-68
2021/05/25 08:27:39;;;;;;;2.10;1.15;;;;;;;13.14;66.66;99842.50;5095335;28;20024;-68
2021/05/25 08:30:08;;;;;;;3.13;1.30;;;;;;;13.18;67.03;99853.66;5094662;28;20025;-67
2021/05/25 08:32:34;;;;;;;2.72;0.95;;;;;;;13.19;66.58;99853.44;5095404;28;20878;-67
2021/05/25 08:34:59;;;;;;;1.42;1.00;;;;;;;13.19;66.92;99842.75;5094779;28;20028;-66
2021/05/25 08:37:25;;;;;;;2.30;1.02;;;;;;;13.18;66.70;99854.47;5089254;28;20068;-69
2021/05/25 08:39:50;;;;;;;2.20;1.20;;;;;;;13.21;66.89;99855.94;5094965;28;20029;-65
2021/05/25 08:42:16;;;;;;;5.63;1.30;;;;;;;13.23;66.83;99874.44;5093974;28;38413;-67
2021/05/25 08:44:41;;;;;;;2.65;1.40;;;;;;;13.23;67.12;99851.22;5094673;28;20120;-66
2021/05/25 08:47:07;;;;;;;2.13;1.40;;;;;;;13.28;67.34;99853.31;5090095;28;30379;-68
2021/05/25 08:49:34;;;;;;;2.50;1.40;;;;;;;13.29;67.58;99852.28;5082788;28;20079;-66
2021/05/25 08:52:00;;;;;;;5.28;1.65;;;;;;;13.37;67.86;99838.78;5074790;28;20029;-67
2021/05/25 08:54:25;;;;;;;2.67;1.58;;;;;;;13.41;67.42;99842.72;5073379;28;20035;-67
2021/05/25 08:56:51;;;;;;;3.88;1.60;;;;;;;13.44;67.57;99833.47;5087530;28;20031;-67
2021/05/25 08:59:16;;;;;;;3.45;1.23;;;;;;;13.49;67.56;99837.19;5093222;28;37272;-67
2021/05/25 09:01:42;;;;;;;2.22;1.13;;;;;;;13.51;67.82;99837.00;5093138;28;35346;-66
2021/05/25 09:04:10;;;;;;;3.13;2.15;;;;;;;13.58;67.83;99840.53;5075870;28;23286;-67
2021/05/25 09:06:53;;;;;;;1.88;1.40;;;;;;;13.59;67.86;99836.84;5094081;28;20025;-68
2021/05/25 09:09:19;;;;;;;2.33;1.40;;;;;;;13.73;68.43;99837.72;5093727;28;31432;-67
2021/05/25 09:12:03;;;;;;;3.92;1.50;;;;;;;13.86;68.21;99837.78;5094215;28;20086;-67
2021/05/25 09:14:29;;;;;;;4.35;1.27;;;;;;;13.94;67.89;99841.28;5093941;28;20041;-67
2021/05/25 09:17:15;;;;;;;3.03;1.40;;;;;;;14.01;68.54;99834.94;5092707;28;20100;-66
2021/05/25 09:19:47;;;;;;;5.03;1.38;;;;;;;14.16;68.36;99829.41;5090360;28;20044;-65
2021/05/25 09:22:40;;;;;;;2.75;1.17;;;;;;;14.28;67.66;99834.97;5093832;28;20059;-66
2021/05/25 09:25:20;;;;;;;3.53;1.42;;;;;;;14.27;67.51;99837.88;5094200;28;20024;-66
2021/05/25 09:27:56;;;;;;;5.65;1.60;;;;;;;14.33;67.57;99831.72;5093973;28;20489;-67
2021/05/25 09:30:25;;;;;;;4.30;1.83;;;;;;;14.40;67.48;99824.50;5088197;28;20064;-68
2021/05/25 09:32:51;;;;;;;2.58;1.45;;;;;;;14.41;67.02;99810.09;5090449;28;20098;-66
2021/05/25 09:35:18;;;;;;;4.47;1.58;;;;;;;14.45;67.45;99802.44;5093561;28;20063;-67
2021/05/25 09:37:45;;;;;;;2.03;1.20;;;;;;;14.52;67.19;99820.19;5093864;28;20052;-66
2021/05/25 09:40:11;;;;;;;2.55;1.20;;;;;;;14.50;66.36;99829.47;5093950;28;20632;-64
2021/05/25 09:42:36;;;;;;;3.10;1.20;;;;;;;14.39;66.24;99838.91;5093762;28;20036;-67
2021/05/25 09:45:12;;;;;;;2.63;1.48;;;;;;;14.40;67.00;99853.97;5092383;28;20971;-67
2021/05/25 09:47:37;;;;;;;4.05;1.65;;;;;;;14.56;67.22;99864.31;5094001;28;20044;-67
2021/05/25 09:50:03;;;;;;;2.22;1.23;;;;;;;14.60;66.65;99845.13;5096753;28;20150;-67
2021/05/25 09:52:29;;;;;;;3.47;1.50;;;;;;;14.56;66.02;99823.28;5092563;28;20037;-66
2021/05/25 09:55:10;;;;;;;2.55;1.30;;;;;;;14.67;66.36;99827.25;5082534;28;20033;-65
2021/05/25 09:57:46;;;;;;;2.80;1.23;;;;;;;14.77;66.08;99830.31;5076467;28;20416;-66
2021/05/25 10:00:34;;;;;;;2.22;1.02;;;;;;;14.82;65.94;99827.03;5077112;28;20029;-66
2021/05/25 10:03:08;;;;;;;2.80;0.95;;;;;;;14.83;65.43;99812.56;5076353;28;20048;-66
2021/05/25 10:05:34;;;;;;;2.28;0.93;;;;;;;14.93;65.67;99847.84;5062124;28;20025;-67
2021/05/25 10:08:00;;;;;;;3.22;1.20;;;;;;;15.00;64.75;99869.31;5095778;28;20414;-67
2021/05/25 10:10:30;;;;;;;1.80;1.10;;;;;;;14.96;64.02;99865.41;5095971;28;20506;-65
2021/05/25 10:12:55;;;;;;;3.35;1.92;;;;;;;14.88;64.42;99861.91;5095800;28;20103;-67
2021/05/25 10:15:26;;;;;;;2.15;1.25;;;;;;;14.88;63.86;99878.00;5097106;28;20036;-68
2021/05/25 10:20:23;;;;;;;2.15;1.30;;;;;;;14.86;63.32;99879.22;5095416;28;20461;-69
2021/05/25 10:22:48;;;;;;;2.88;1.38;;;;;;;14.76;62.42;99868.88;5096992;28;20037;-69
2021/05/25 10:25:15;;;;;;;3.65;1.40;;;;;;;14.52;61.56;99865.75;5097182;28;20028;-68
2021/05/25 10:27:42;;;;;;;4.10;1.25;;;;;;;14.33;61.74;99879.94;5095892;28;20780;-67
2021/05/25 10:30:22;;;;;;;2.25;1.10;;;;;;;14.25;62.54;99867.56;5097142;28;20029;-67
2021/05/25 10:32:51;;;;;;;2.20;1.30;;;;;;;14.35;62.97;99867.16;5096986;28;20079;-67
2021/05/25 10:35:19;;;;;;;2.03;1.10;;;;;;;14.42;62.00;99864.50;5095604;28;20111;-67
2021/05/25 10:38:04;;;;;;;3.28;1.10;;;;;;;14.47;62.46;99875.44;5059028;28;20029;-67
2021/05/25 10:40:44;;;;;;;1.48;1.00;;;;;;;14.55;62.19;99867.19;5090676;28;20488;-66
2021/05/25 10:43:34;;;;;;;1.20;0.88;;;;;;;14.43;60.92;99866.97;5094634;28;20032;-68
2021/05/25 10:46:11;;;;;;;2.72;1.10;;;;;;;14.35;61.28;99864.47;5096589;28;20119;-68
2021/05/25 10:48:51;;;;;;;2.75;0.98;;;;;;;14.47;62.53;99870.06;5096904;28;20043;-68
2021/05/25 10:51:16;;;;;;;3.33;1.20;;;;;;;14.61;61.86;99871.75;5094509;28;20040;-68
2021/05/25 10:53:42;;;;;;;2.15;1.30;;;;;;;14.71;62.41;99866.03;5094928;28;20470;-68
2021/05/25 10:56:27;;;;;;;3.03;1.20;;;;;;;14.92;62.43;99862.28;5094038;28;20044;-70
2021/05/25 10:59:00;;;;;;;3.17;1.00;;;;;;;15.06;61.61;99876.53;5095264;28;20537;-68
2021/05/25 11:01:28;;;;;;;2.35;1.13;;;;;;;15.07;61.33;99859.41;5096044;28;20053;-69
2021/05/25 11:04:08;;;;;;;4.07;1.25;;;;;;;15.11;60.38;99871.38;5078245;28;20563;-68
2021/05/25 11:06:33;;;;;;;3.33;1.50;;;;;;;14.96;58.97;99878.81;5095314;28;20089;-68
2021/05/25 11:09:21;;;;;;;3.38;1.67;;;;;;;14.86;60.29;99871.19;5095822;28;20028;-65
2021/05/25 11:12:06;;;;;;;2.60;1.42;;;;;;;14.86;60.23;99857.78;5095557;28;20036;-67
2021/05/25 11:14:32;;;;;;;4.22;1.50;;;;;;;15.07;60.71;99854.03;5079642;28;20036;-66
2021/05/25 11:16:57;;;;;;;4.43;1.67;;;;;;;15.26;60.57;99846.19;5076824;28;20033;-67
2021/05/25 11:19:34;;;;;;;3.00;1.20;;;;;;;15.23;58.76;99840.19;5075363;28;20212;-69
2021/05/25 11:22:18;;;;;;;4.55;1.30;;;;;;;15.40;59.29;99855.84;5095830;28;20028;-68
2021/05/25 11:25:01;;;;;;;5.22;1.60;;;;;;;15.60;59.86;99854.97;5095425;28;20052;-68
2021/05/25 11:27:33;;;;;;;2.35;1.20;;;;;;;15.81;58.79;99852.00;5095769;28;20190;-67
2021/05/25 11:30:01;;;;;;;3.45;1.42;;;;;;;15.83;57.86;99852.63;5096254;28;20032;-68
2021/05/25 11:32:28;;;;;;;1.98;1.10;;;;;;;15.79;57.45;99859.44;5095978;28;20036;-66
2021/05/25 11:35:07;;;;;;;3.28;0.93;;;;;;;15.72;56.15;99866.69;5095833;28;20116;-67
2021/05/25 11:37:34;;;;;;;1.30;0.90;;;;;;;15.47;55.18;99870.06;5094267;28;20029;-65
2021/05/25 11:40:00;;;;;;;2.47;1.20;;;;;;;15.39;56.16;99865.75;5095947;28;20536;-69
2021/05/25 11:42:31;;;;;;;2.88;1.20;;;;;;;15.45;56.46;99866.78;5094395;28;20024;-69
2021/05/25 11:44:56;;;;;;;5.45;1.20;;;;;;;15.68;56.54;99870.84;5095175;28;20028;-68
2021/05/25 11:47:22;;;;;;;3.38;1.60;;;;;;;15.75;56.72;99844.78;5094059;28;20040;-68
2021/05/25 11:49:48;;;;;;;3.13;1.20;;;;;;;15.79;55.35;99842.47;5094033;28;20033;-70
2021/05/25 11:52:23;;;;;;;4.00;1.40;;;;;;;15.75;54.97;99863.59;5096020;28;20112;-66
2021/05/25 11:54:50;;;;;;;3.17;1.45;;;;;;;15.87;55.79;99869.97;5095526;28;20048;-67
2021/05/25 11:57:41;;;;;;;2.67;1.60;;;;;;;15.83;54.40;99874.13;5095508;28;20028;-66
2021/05/25 12:00:23;;;;;;;3.00;1.35;;;;;;;15.98;56.15;99875.69;5094228;28;20036;-66
2021/05/25 12:02:59;;;;;;;4.20;1.77;;;;;;;16.29;56.64;99871.41;5095342;28;20714;-68
2021/05/25 12:05:25;;;;;;;3.80;1.92;;;;;;;16.52;55.34;99881.63;5093948;28;20031;-67
2021/05/25 12:07:51;;;;;;;1.45;0.90;;;;;;;16.54;53.59;99890.31;5095769;28;20110;-66
2021/05/25 12:10:18;;;;;;;1.80;1.10;;;;;;;16.35;53.22;99886.69;5095701;28;20515;-66
2021/05/25 12:12:44;;;;;;;4.75;2.08;;;;;;;16.25;53.61;99879.09;5093641;28;20032;-67
2021/05/25 12:15:23;;;;;;;4.80;2.00;;;;;;;16.38;54.56;99878.19;5094713;28;20073;-67
2021/05/25 12:17:52;;;;;;;5.65;1.80;;;;;;;16.54;54.13;99884.94;5095075;28;20039;-69
2021/05/25 12:20:19;;;;;;;2.63;1.55;;;;;;;16.69;54.68;99871.16;5093584;28;20773;-66
2021/05/25 12:22:47;;;;;;;2.85;1.50;;;;;;;16.70;52.75;99872.81;5095350;28;20028;-68
2021/05/25 12:25:13;;;;;;;4.45;1.52;;;;;;;16.63;52.83;99853.22;5093606;28;20466;-67
2021/05/25 12:27:38;;;;;;;4.15;1.42;;;;;;;16.64;51.96;99854.88;5095403;28;20112;-67
2021/05/25 12:30:05;;;;;;;3.33;1.50;;;;;;;16.63;52.37;99837.88;5093585;28;20035;-69
2021/05/25 12:32:30;;;;;;;2.15;1.00;;;;;;;16.56;51.01;99840.63;5094928;28;20143;-68
2021/05/25 12:34:55;;;;;;;1.70;0.88;;;;;;;16.50;51.16;99856.84;5094988;28;20028;-67
2021/05/25 12:37:21;;;;;;;2.20;1.02;;;;;;;16.42;50.76;99857.91;5094744;28;20039;-66
2021/05/25 12:40:11;;;;;;;2.17;0.98;;;;;;;16.37;50.15;99877.34;5094654;28;20028;-66
2021/05/25 12:42:43;;;;;;;3.78;1.00;;;;;;;16.24;50.16;99888.22;5093959;28;20111;-67
2021/05/25 12:45:10;;;;;;;1.65;1.10;;;;;;;15.99;48.35;99885.41;5094740;28;20039;-66
2021/05/25 12:47:49;;;;;;;2.63;1.00;;;;;;;15.83;49.11;99884.06;5094564;28;20108;-67
2021/05/25 12:50:15;;;;;;;2.28;1.00;;;;;;;15.86;49.87;99889.00;5093342;28;20035;-68
2021/05/25 12:52:40;;;;;;;2.38;1.20;;;;;;;15.89;50.00;99884.00;5094483;28;20380;-69
2021/05/25 12:55:13;;;;;;;2.97;1.02;;;;;;;15.98;49.86;99898.03;5110107;28;20029;-69
2021/05/25 12:57:51;;;;;;;1.23;0.75;;;;;;;15.87;49.01;99891.47;5093554;28;20063;-67
2021/05/25 13:00:35;;;;;;;0.95;0.70;;;;;;;15.62;47.58;99909.28;5094078;28;20517;-67
2021/05/25 13:03:01;;;;;;;2.70;0.80;;;;;;;15.34;47.97;99903.13;5094115;28;20053;-67
2021/05/25 13:05:31;;;;;;;2.45;0.95;;;;;;;15.20;48.19;99910.38;5094068;28;20894;-67
2021/05/25 13:08:03;;;;;;;3.85;1.02;;;;;;;15.10;48.01;99917.19;5094105;28;20037;-69
2021/05/25 13:10:37;;;;;;;0.93;0.60;;;;;;;15.00;48.25;99918.41;5092524;28;20403;-72
2021/05/25 13:13:21;;;;;;;1.45;0.90;;;;;;;14.98;48.92;99909.75;5092306;28;20503;-68
2021/05/25 13:15:57;;;;;;;2.20;1.02;;;;;;;15.02;49.16;99904.78;5066881;28;20121;-69
2021/05/25 13:18:42;;;;;;;3.30;1.02;;;;;;;15.10;49.62;99915.31;5092645;28;20036;-67
2021/05/25 13:21:08;;;;;;;3.50;1.10;;;;;;;15.26;49.57;99911.41;5091355;28;20543;-67
2021/05/25 13:23:34;;;;;;;3.70;1.30;;;;;;;15.38;49.89;99908.91;5075106;28;20032;-68
2021/05/25 13:26:13;;;;;;;4.03;1.15;;;;;;;15.45;49.79;99915.09;5097110;28;20028;-67
2021/05/25 13:28:51;;;;;;;4.83;1.20;;;;;;;15.54;50.26;99913.84;5079827;28;20143;-70
2021/05/25 13:31:27;;;;;;;4.82;1.08;;;;;;;15.64;49.97;99926.00;5095273;28;20029;-68
2021/05/25 13:33:53;;;;;;;3.25;1.23;;;;;;;15.76;50.02;99915.44;5095280;28;20025;-68
2021/05/25 13:36:19;;;;;;;1.77;0.90;;;;;;;15.92;50.58;99903.44;5096222;28;20032;-71
2021/05/25 13:38:46;;;;;;;2.60;0.85;;;;;;;16.07;50.47;99895.91;5079048;28;20068;-69
2021/05/25 13:41:13;;;;;;;1.33;1.00;;;;;;;16.28;50.52;99896.66;5078041;28;20498;-70
2021/05/25 13:43:39;;;;;;;4.35;1.30;;;;;;;16.50;50.74;99899.84;5096947;28;20036;-69
2021/05/25 13:46:05;;;;;;;1.67;1.00;;;;;;;16.71;50.69;99906.72;5094206;28;20024;-69
2021/05/25 13:48:30;;;;;;;1.95;1.23;;;;;;;16.69;49.03;99919.56;5095389;28;24154;-68
2021/05/25 13:50:56;;;;;;;1.95;0.80;;;;;;;16.49;48.59;99909.75;5096487;28;20075;-68
2021/05/25 13:53:22;;;;;;;2.45;1.00;;;;;;;16.45;48.83;99903.16;5098864;27;20036;-68
2021/05/25 13:55:47;;;;;;;2.38;1.40;;;;;;;16.41;48.52;99897.38;5116628;27;20032;-68
2021/05/25 13:58:14;;;;;;;2.33;1.10;;;;;;;16.34;48.84;99893.09;5115739;27;20035;-67
2021/05/25 14:03:17;;;;;;;3.00;1.02;;;;;;;16.29;48.85;99877.59;5116506;27;20965;-66
2021/05/25 14:05:42;;;;;;;3.70;1.90;;;;;;;16.40;49.21;99873.41;5115608;27;38240;-66
2021/05/25 14:08:08;;;;;;;3.75;1.20;;;;;;;16.51;49.20;99875.44;5116223;27;20032;-68
2021/05/25 14:10:35;;;;;;;2.70;1.13;;;;;;;16.40;47.79;99885.00;5116438;27;20032;-67
2021/05/25 14:13:03;;;;;;;3.05;1.38;;;;;;;16.27;48.21;99877.00;5116469;27;20062;-68
2021/05/25 14:15:28;;;;;;;4.20;0.98;;;;;;;16.20;47.83;99878.94;5115018;28;20028;-71
2021/05/25 14:17:53;;;;;;;5.00;1.42;;;;;;;15.98;47.80;99887.28;5078899;27;20043;-69
2021/05/25 14:20:19;;;;;;;3.30;1.45;;;;;;;15.82;48.03;99891.28;5113225;27;38368;-73
